Flight Track Log - Related Links

Times and Time Zones

All times are in EST time to prevent confusion due to time zone crossing. See the CHQ6348 flight status page for this flight to view local times or setup timezone preferences in your user account.


Time Position Orientation Groundspeed Altitude Reporting Facility
EST Latitude Longitude Course Direction KTS MPH feet Rate Location/Type
Fri 02:28:52 PM 44.8500 -93.1500 141° Southeast 182 209 2,800  Level Minneapolis TRACON
Fri 02:30:07 PM 44.8153 -93.0800 125° Southeast 231 266 4,500 1,971 Climbing Minneapolis Center
Fri 02:31:00 PM 44.5789 -92.7645 141° Southeast  Level Estimated
Fri 02:31:09 PM 44.7442 -93.0156 147° Southeast 249 287 7,300  Level Minneapolis Center
Fri 02:32:00 PM 44.5029 -92.6509 90° East  Level Estimated
Fri 02:32:10 PM 44.6833 -92.9606 147° Southeast 254 292 9,100  Level Minneapolis Center
Fri 02:33:00 PM 44.4268 -92.5377 120° Southeast  Level Estimated
Fri 02:33:12 PM 44.6261 -92.8761 134° Southeast 294 338 10,700  Level Minneapolis Center
Fri 02:34:00 PM 44.3481 -92.4498 141° Southeast  Level FlightAware Approximate
Fri 02:34:14 PM 44.5650 -92.7842 133° Southeast 321 369 12,200  Level Minneapolis Center
Fri 02:35:16 PM 44.5008 -92.6878 133° Southeast 336 387 13,700 1,415 Climbing Minneapolis Center
Fri 02:36:17 PM 44.4339 -92.5875 133° Southeast 348 400 15,100 1,415 Climbing Minneapolis Center
Fri 02:37:19 PM 44.3647 -92.4850 133° Southeast 362 417 16,600 1,452 Climbing Minneapolis Center
Fri 02:38:21 PM 44.3031 -92.3672 126° Southeast 370 426 18,100 1,597 Climbing Minneapolis Center
Fri 02:39:23 PM 44.2381 -92.2117 120° Southeast 383 441 19,900 1,610 Climbing Minneapolis Center
Fri 02:40:24 PM 44.1811 -92.0794 121° Southeast 393 452 21,400 1,415 Climbing Minneapolis Center
Fri 02:41:26 PM 44.1225 -91.9467 122° Southeast 397 457 22,800 1,403 Climbing Minneapolis Center
Fri 02:42:28 PM 44.0642 -91.8128 121° Southeast 402 463 24,300 1,415 Climbing Minneapolis Center
Fri 02:43:29 PM 44.0072 -91.6792 121° Southeast 403 464 25,700 1,317 Climbing Minneapolis Center
Fri 02:44:31 PM 43.9439 -91.5383 122° Southeast 403 464 27,000 1,065 Climbing Minneapolis Center
Fri 02:45:33 PM 43.8758 -91.4128 127° Southeast 405 466 27,900 927 Climbing Minneapolis Center
Fri 02:46:34 PM 43.7947 -91.3019 135° Southeast 408 470 28,900 976 Climbing Minneapolis Center
Fri 02:47:36 PM 43.7131 -91.1886 135° Southeast 411 473 29,900 1,065 Climbing Minneapolis Center
Fri 02:48:38 PM 43.6153 -91.0522 135° Southeast 414 476 31,100 991 Climbing Minneapolis Center
Fri 02:49:25 PM 43.5656 -90.9861 136° Southeast 421 484 31,700 991 Climbing Chicago Center
Fri 02:50:27 PM 43.4650 -90.8464 135° Southeast 426 490 32,900 1,016 Climbing Chicago Center
Fri 02:51:29 PM 43.3803 -90.7300 135° Southeast 430 495 33,800 919 Climbing Chicago Center
Fri 02:52:31 PM 43.2964 -90.6139 135° Southeast 429 494 34,800 581 Climbing Chicago Center
Fri 02:53:33 PM 43.2106 -90.5006 136° Southeast 428 493 35,000 96 Climbing Chicago Center
Fri 02:54:36 PM 43.1175 -90.3844 138° Southeast 448 516 35,000  Level Chicago Center
Fri 02:55:37 PM 43.0219 -90.2631 137° Southeast 465 535 35,000  Level Chicago Center
Fri 02:56:40 PM 42.9058 -90.1158 137° Southeast 475 547 35,000  Level Chicago Center
Fri 02:57:42 PM 42.8106 -89.9956 137° Southeast 472 543 35,000  Level Chicago Center
Fri 02:58:44 PM 42.7164 -89.8792 138° Southeast 456 525 35,000  Level Chicago Center
Fri 02:59:46 PM 42.6236 -89.7639 138° Southeast 453 521 35,000  Level Chicago Center
Fri 03:00:48 PM 42.5308 -89.6478 137° Southeast 456 525 35,000 -435 Level Chicago Center
Fri 03:01:50 PM 42.4175 -89.5097 138° Southeast 457 526 34,100 -919 Descending Chicago Center
Fri 03:02:52 PM 42.3239 -89.3933 137° Southeast 459 528 33,100 -532 Descending Chicago Center
Fri 03:03:54 PM 42.2322 -89.2822 138° Southeast 450 518 33,000 -48 Descending Chicago Center
Fri 03:04:56 PM 42.1392 -89.1692 138° Southeast 450 518 33,000  Level Chicago Center
Fri 03:05:58 PM 42.0392 -89.0486 138° Southeast 455 524 33,000  Level Chicago Center
Fri 03:07:00 PM 41.9450 -88.9344 138° Southeast 457 526 33,000  Level Chicago Center
Fri 03:08:02 PM 41.8506 -88.8211 138° Southeast 458 527 33,000  Level Chicago Center
Fri 03:09:04 PM 41.7353 -88.6847 139° Southeast 460 529 33,000  Level Chicago Center
Fri 03:10:06 PM 41.6394 -88.5711 138° Southeast 462 532 33,000 -242 Level Chicago Center
Fri 03:11:08 PM 41.5442 -88.4581 138° Southeast 460 529 32,500 -774 Descending Chicago Center
Fri 03:12:10 PM 41.4492 -88.3453 138° Southeast 462 532 31,400 -1,113 Descending Chicago Center
Fri 03:13:12 PM 41.3556 -88.2342 138° Southeast 461 531 30,200 -1,161 Descending Chicago Center
Fri 03:14:14 PM 41.2442 -88.1047 139° Southeast 455 524 29,000 -629 Descending Chicago Center
Fri 03:15:16 PM 41.1419 -88.0083 145° Southeast 456 525 28,900 -968 Descending Chicago Center
Fri 03:16:18 PM 41.0289 -87.9292 152° Southeast 458 527 27,000 -1,887 Descending Chicago Center
Fri 03:17:20 PM 40.9131 -87.8483 152° Southeast 470 541 25,000 -1,452 Descending Chicago Center
Fri 03:18:22 PM 40.8147 -87.7383 140° Southeast 464 534 24,000 -823 Descending Chicago Center
Fri 03:19:24 PM 40.7114 -87.5989 134° Southeast 446 513 23,300 -1,016 Descending Chicago Center
Fri 03:20:26 PM 40.6261 -87.4833 134° Southeast 441 507 21,900 -1,500 Descending Chicago Center
Fri 03:21:28 PM 40.5433 -87.3767 136° Southeast 418 481 20,200 -1,694 Descending Chicago Center
Fri 03:22:30 PM 40.4653 -87.2714 134° Southeast 406 467 18,400 -1,694 Descending Chicago Center
Fri 03:23:32 PM 40.3806 -87.1606 135° Southeast 403 464 16,700 -1,694 Descending Chicago Center
Fri 03:24:34 PM 40.3033 -87.0583 135° Southeast 396 456 14,900 -1,694 Descending Chicago Center
Fri 03:25:36 PM 40.2286 -86.9592 135° Southeast 384 442 13,200 -1,694 Descending Chicago Center
Fri 03:26:38 PM 40.1561 -86.8636 135° Southeast 373 429 11,400 -1,500 Descending Chicago Center
Fri 03:27:40 PM 40.0856 -86.7456 128° Southeast 339 390 10,100 -1,210 Descending Chicago Center
Fri 03:28:42 PM 40.0375 -86.6556 125° Southeast 305 351 8,900 -1,161 Descending Chicago Center
Fri 03:29:44 PM 39.9925 -86.5692 124° Southeast 291 335 7,700 -1,210 Descending Chicago Center
Fri 03:30:46 PM 39.9481 -86.4875 125° Southeast 284 327 6,400 -1,210 Descending Chicago Center
Fri 03:31:48 PM 39.9064 -86.4100 125° Southeast 273 314 5,200 -1,398 Descending Chicago Center
Fri 03:32:29 PM 39.8667 -86.3500 131° Southeast 256 295 4,000 -1,446 Descending Indianapolis TRACON
Fri 03:33:11 PM 39.8500 -86.3050 116° Southeast 257 296 3,200 -571 Descending Indianapolis Center
Fri 03:34:14 PM 39.8156 -86.2422 126° Southeast 223 257 3,000 -624 Descending Indianapolis Center
Fri 03:35:16 PM 39.7711 -86.2394 177° South 184 212 1,900 -823 Descending Indianapolis Center
Fri 03:36:18 PM 39.7408 -86.2772 224° Southwest 157 181 1,300 -484 Descending Indianapolis Center
Fri 03:37:20 PM 39.7133 -86.3119 224° Southwest 152 175 900 -387 Descending Indianapolis Center

Login

Don't have an account? Register now (free) for customized features, flight alerts, and more!